createdAt,value
2019-05-26T00:02:22.724Z,100839.91
2019-05-26T00:04:53.391Z,100835.83
2019-05-26T00:07:30.502Z,100840.68
2019-05-26T00:09:56.562Z,100840.68
2019-05-26T00:12:27.231Z,100827.28
2019-05-26T00:14:58.013Z,100830.52
2019-05-26T00:17:28.931Z,100828.99
2019-05-26T00:19:59.754Z,100832.56
2019-05-26T00:22:30.829Z,100826.86
2019-05-26T00:25:01.648Z,100824.81
2019-05-26T00:27:32.284Z,100833.94
2019-05-26T00:30:03.883Z,100833.69
2019-05-26T00:32:34.768Z,100833.77
2019-05-26T00:35:09.140Z,100831.55
2019-05-26T00:37:49.279Z,100829.34
2019-05-26T00:40:12.664Z,100834.16
2019-05-26T00:42:43.994Z,100838.31
2019-05-26T00:45:15.215Z,100835.87
2019-05-26T00:47:46.017Z,100840.67
2019-05-26T00:50:18.648Z,100833.59
2019-05-26T00:52:49.521Z,100841.38
2019-05-26T00:55:20.754Z,100830.29
2019-05-26T00:57:51.508Z,100835.61
2019-05-26T01:00:39.928Z,100840.73
2019-05-26T01:03:11.137Z,100834.05
2019-05-26T01:05:42.027Z,100838.30
2019-05-26T01:08:15.501Z,100832.75
2019-05-26T01:10:47.995Z,100830.72
2019-05-26T01:13:18.739Z,100833.73
2019-05-26T01:15:50.819Z,100819.95
2019-05-26T01:18:22.849Z,100826.87
2019-05-26T01:20:56.482Z,100822.63
2019-05-26T01:23:27.114Z,100818.14
2019-05-26T01:25:57.740Z,100832.27
2019-05-26T01:28:28.586Z,100837.08
2019-05-26T01:30:59.328Z,100832.94
2019-05-26T01:33:30.027Z,100824.84
2019-05-26T01:36:00.949Z,100830.11
2019-05-26T01:38:32.483Z,100822.90
2019-05-26T01:41:03.177Z,100819.27
2019-05-26T01:43:34.021Z,100820.48
2019-05-26T01:46:04.672Z,100825.12
2019-05-26T01:48:35.351Z,100826.63
2019-05-26T01:51:06.205Z,100826.47
2019-05-26T01:53:36.958Z,100832.47
2019-05-26T01:56:07.763Z,100833.64
2019-05-26T01:58:38.575Z,100825.88
2019-05-26T02:01:09.271Z,100829.34
2019-05-26T02:03:40.153Z,100827.30
2019-05-26T02:06:10.972Z,100816.86
2019-05-26T02:08:41.739Z,100816.72
2019-05-26T02:11:12.547Z,100807.75
2019-05-26T02:13:43.193Z,100814.43
2019-05-26T02:16:13.841Z,100825.22
2019-05-26T02:18:44.474Z,100823.41
2019-05-26T02:21:15.133Z,100827.55
2019-05-26T02:23:45.854Z,100823.48
2019-05-26T02:26:16.552Z,100830.41
2019-05-26T02:28:47.937Z,100819.64
2019-05-26T02:31:18.758Z,100816.56
2019-05-26T02:33:49.489Z,100812.97
2019-05-26T02:36:20.401Z,100819.64
2019-05-26T02:39:01.860Z,100819.16
2019-05-26T02:41:23.516Z,100818.96
2019-05-26T02:43:54.267Z,100817.48
2019-05-26T02:46:24.971Z,100824.41
2019-05-26T02:48:55.832Z,100820.16
2019-05-26T02:51:26.462Z,100829.81
2019-05-26T02:53:57.078Z,100825.56
2019-05-26T02:56:27.760Z,100820.15
2019-05-26T02:58:59.557Z,100823.44
2019-05-26T03:01:31.571Z,100818.09
2019-05-26T03:04:02.286Z,100810.24
2019-05-26T03:06:34.365Z,100814.15
2019-05-26T03:09:21.988Z,100814.48
2019-05-26T03:11:41.004Z,100811.03
2019-05-26T03:14:13.412Z,100808.73
2019-05-26T03:16:46.581Z,100807.09
2019-05-26T03:19:19.460Z,100807.16
2019-05-26T03:21:52.387Z,100814.25
2019-05-26T03:24:25.391Z,100809.83
2019-05-26T03:26:56.951Z,100811.03
2019-05-26T03:29:27.594Z,100810.85
2019-05-26T03:31:58.768Z,100816.44
2019-05-26T03:34:29.593Z,100818.33
2019-05-26T03:37:00.195Z,100813.99
2019-05-26T03:39:43.739Z,100809.97
2019-05-26T03:42:03.372Z,100804.67
2019-05-26T03:44:34.001Z,100808.44
2019-05-26T03:47:04.556Z,100810.08
2019-05-26T03:49:35.351Z,100812.43
2019-05-26T03:52:07.132Z,100810.03
2019-05-26T03:54:37.878Z,100802.19
2019-05-26T03:57:08.492Z,100802.30
2019-05-26T03:59:39.126Z,100811.17
2019-05-26T04:02:10.226Z,100808.42
2019-05-26T04:04:40.786Z,100818.95
2019-05-26T04:07:11.450Z,100814.11
2019-05-26T04:10:02.569Z,100818.56
2019-05-26T04:12:14.466Z,100821.05
2019-05-26T04:14:45.203Z,100820.04
2019-05-26T04:17:15.962Z,100818.78
2019-05-26T04:19:46.599Z,100813.80
2019-05-26T04:22:17.534Z,100817.17
2019-05-26T04:24:48.413Z,100815.41
2019-05-26T04:27:19.337Z,100816.16
2019-05-26T04:29:50.105Z,100816.16
2019-05-26T04:32:21.134Z,100825.16
2019-05-26T04:34:51.968Z,100816.31
2019-05-26T04:37:23.065Z,100820.49
2019-05-26T04:39:54.652Z,100817.88
2019-05-26T04:42:25.509Z,100812.33
2019-05-26T04:44:56.180Z,100814.56
2019-05-26T04:47:27.437Z,100807.02
2019-05-26T04:49:59.856Z,100813.73
2019-05-26T04:52:31.882Z,100805.52
2019-05-26T04:55:04.009Z,100808.90
2019-05-26T04:57:35.001Z,100804.06
2019-05-26T05:00:09.263Z,100807.20
2019-05-26T05:02:40.239Z,100809.72
2019-05-26T05:05:11.871Z,100803.55
2019-05-26T05:07:42.634Z,100805.07
2019-05-26T05:10:13.541Z,100810.91
2019-05-26T05:12:44.340Z,100811.58
2019-05-26T05:15:15.644Z,100803.83
2019-05-26T05:17:46.364Z,100813.41
2019-05-26T05:20:17.027Z,100818.02
2019-05-26T05:22:48.796Z,100818.01
2019-05-26T05:25:19.582Z,100809.70
2019-05-26T05:27:50.380Z,100822.63
2019-05-26T05:30:22.055Z,100822.63
2019-05-26T05:32:52.801Z,100814.78
2019-05-26T05:35:23.678Z,100814.78
2019-05-26T05:37:54.373Z,100820.70
2019-05-26T05:40:24.993Z,100812.02
2019-05-26T05:42:55.845Z,100814.66
2019-05-26T05:45:26.557Z,100802.25
2019-05-26T05:47:57.643Z,100819.45
2019-05-26T05:50:28.341Z,100819.15
2019-05-26T05:52:58.906Z,100818.06
2019-05-26T05:55:35.022Z,100820.95
2019-05-26T05:58:06.675Z,100799.66
2019-05-26T06:00:37.307Z,100814.24
2019-05-26T06:03:08.025Z,100814.24
2019-05-26T06:05:40.182Z,100823.87
2019-05-26T06:08:10.905Z,100817.27
2019-05-26T06:10:41.529Z,100815.59
2019-05-26T06:13:13.701Z,100813.76
2019-05-26T06:15:44.437Z,100813.75
2019-05-26T06:18:15.501Z,100813.95
2019-05-26T06:20:46.147Z,100815.34
2019-05-26T06:23:16.990Z,100818.77
2019-05-26T06:25:49.147Z,100819.16
2019-05-26T06:28:20.103Z,100823.77
2019-05-26T06:30:51.116Z,100817.84
2019-05-26T06:33:21.891Z,100822.16
2019-05-26T06:35:52.542Z,100814.29
2019-05-26T06:38:24.145Z,100821.72
2019-05-26T06:40:54.848Z,100817.10
2019-05-26T06:43:28.489Z,100821.38
2019-05-26T06:45:59.332Z,100827.30
2019-05-26T06:48:29.956Z,100816.46
2019-05-26T06:51:00.831Z,100811.32
2019-05-26T06:53:31.501Z,100821.25
2019-05-26T06:56:02.426Z,100812.45
2019-05-26T06:58:33.478Z,100819.15
2019-05-26T07:01:04.894Z,100819.56
2019-05-26T07:03:35.604Z,100816.87
2019-05-26T07:06:06.532Z,100806.52
2019-05-26T07:08:37.440Z,100803.78
2019-05-26T07:11:08.122Z,100797.48
2019-05-26T07:13:39.055Z,100795.63
2019-05-26T07:16:12.069Z,100795.89
2019-05-26T07:18:43.023Z,100796.45
2019-05-26T07:21:13.837Z,100796.92
2019-05-26T07:23:44.647Z,100793.20
2019-05-26T07:26:15.978Z,100795.58
2019-05-26T07:28:46.826Z,100789.62
2019-05-26T07:31:17.783Z,100793.81
2019-05-26T07:33:48.726Z,100785.02
2019-05-26T07:36:19.527Z,100788.89
2019-05-26T07:38:50.436Z,100798.64
2019-05-26T07:41:21.193Z,100796.87
2019-05-26T07:43:52.095Z,100789.19
2019-05-26T07:46:22.868Z,100791.94
2019-05-26T07:48:53.480Z,100797.55
2019-05-26T07:51:24.379Z,100802.08
2019-05-26T07:53:56.194Z,100795.22
2019-05-26T07:56:27.114Z,100795.03
2019-05-26T07:58:59.639Z,100795.84
2019-05-26T08:01:36.313Z,100791.62
2019-05-26T08:04:03.071Z,100787.98
2019-05-26T08:06:33.761Z,100783.05
2019-05-26T08:09:07.547Z,100788.76
2019-05-26T08:11:38.306Z,100790.42
2019-05-26T08:14:09.259Z,100784.83
2019-05-26T08:16:40.140Z,100779.43
2019-05-26T08:19:12.634Z,100783.94
2019-05-26T08:21:44.001Z,100780.85
2019-05-26T08:24:16.629Z,100777.41
2019-05-26T08:26:47.567Z,100774.84
2019-05-26T08:29:18.969Z,100771.56
2019-05-26T08:31:50.052Z,100767.79
2019-05-26T08:34:21.002Z,100772.56
2019-05-26T08:36:51.765Z,100770.89
2019-05-26T08:39:22.523Z,100760.36
2019-05-26T08:41:53.793Z,100755.77
2019-05-26T08:44:26.181Z,100763.30
2019-05-26T08:46:57.457Z,100760.17
2019-05-26T08:49:28.282Z,100762.05
2019-05-26T08:51:59.429Z,100761.64
2019-05-26T08:54:30.147Z,100760.39
2019-05-26T08:57:04.016Z,100767.87
2019-05-26T08:59:36.009Z,100750.88
2019-05-26T09:02:08.241Z,100747.20
2019-05-26T09:04:44.481Z,100740.39
2019-05-26T09:07:16.509Z,100751.64
2019-05-26T09:09:50.049Z,100740.91
2019-05-26T09:12:21.578Z,100736.13
2019-05-26T09:14:52.256Z,100733.92
2019-05-26T09:17:26.831Z,100732.48
2019-05-26T09:20:12.378Z,100723.16
2019-05-26T09:22:46.226Z,100722.64
2019-05-26T09:25:19.407Z,100724.00
2019-05-26T09:27:50.589Z,100725.69
2019-05-26T09:30:24.067Z,100717.33
2019-05-26T09:32:56.022Z,100721.78
2019-05-26T09:35:28.246Z,100726.73
2019-05-26T09:37:59.800Z,100731.70
2019-05-26T09:40:31.051Z,100723.80
2019-05-26T09:43:15.007Z,100725.66
2019-05-26T09:45:38.361Z,100722.41
2019-05-26T09:48:13.434Z,100724.23
2019-05-26T09:50:44.273Z,100722.72
2019-05-26T09:53:17.119Z,100718.02
2019-05-26T09:55:47.908Z,100723.30
2019-05-26T09:58:20.286Z,100715.68
2019-05-26T10:00:52.148Z,100712.06
2019-05-26T10:03:26.331Z,100710.91
2019-05-26T10:05:58.285Z,100714.48
2019-05-26T10:08:30.138Z,100716.64
2019-05-26T10:11:00.754Z,100705.63
2019-05-26T10:13:32.388Z,100709.17
2019-05-26T10:16:04.273Z,100693.45
2019-05-26T10:18:36.213Z,100689.47
2019-05-26T10:21:11.291Z,100685.52
2019-05-26T10:23:43.672Z,100692.17
2019-05-26T10:26:16.803Z,100697.70
2019-05-26T10:28:47.709Z,100682.61
2019-05-26T10:31:18.583Z,100683.98
2019-05-26T10:33:49.510Z,100689.83
2019-05-26T10:36:20.250Z,100679.78
2019-05-26T10:38:50.930Z,100682.41
2019-05-26T10:41:21.674Z,100679.09
2019-05-26T10:43:59.352Z,100678.13
2019-05-26T10:46:30.249Z,100681.63
2019-05-26T10:49:01.256Z,100677.56
2019-05-26T10:51:32.129Z,100673.31
2019-05-26T10:54:03.060Z,100664.80
2019-05-26T10:56:34.932Z,100658.59
2019-05-26T10:59:07.891Z,100659.05
2019-05-26T11:01:40.850Z,100650.76
2019-05-26T11:04:11.930Z,100650.73
2019-05-26T11:06:42.827Z,100630.75
2019-05-26T11:09:14.692Z,100641.39
2019-05-26T11:11:45.620Z,100645.02
2019-05-26T11:14:16.654Z,100645.85
2019-05-26T11:16:52.769Z,100642.56
2019-05-26T11:19:23.989Z,100633.22
2019-05-26T11:21:58.345Z,100626.69
2019-05-26T11:24:30.133Z,100629.61
2019-05-26T11:27:14.678Z,100619.63
2019-05-26T11:29:45.827Z,100616.67
2019-05-26T11:32:17.054Z,100595.06
2019-05-26T11:35:01.012Z,100608.55
2019-05-26T11:37:23.577Z,100611.83
2019-05-26T11:39:54.970Z,100604.38
2019-05-26T11:42:25.886Z,100608.44
2019-05-26T11:44:57.789Z,100605.44
2019-05-26T11:47:28.524Z,100601.41
2019-05-26T11:49:59.318Z,100583.83
2019-05-26T11:52:30.510Z,100583.47
2019-05-26T11:55:01.349Z,100589.69
2019-05-26T11:57:36.272Z,100585.59
2019-05-26T12:00:15.140Z,100584.07
2019-05-26T12:02:47.282Z,100577.39
2019-05-26T12:05:18.235Z,100569.56
2019-05-26T12:07:48.923Z,100575.36
2019-05-26T12:10:20.149Z,100571.29
2019-05-26T12:12:51.157Z,100572.84
2019-05-26T12:15:22.439Z,100566.06
2019-05-26T12:17:56.523Z,100558.92
2019-05-26T12:20:29.222Z,100555.56
2019-05-26T12:23:01.545Z,100551.20
2019-05-26T12:25:34.613Z,100547.72
2019-05-26T12:28:05.602Z,100552.77
2019-05-26T12:30:39.652Z,100527.72
2019-05-26T12:33:10.382Z,100534.94
2019-05-26T12:35:45.797Z,100520.63
2019-05-26T12:38:17.450Z,100519.95
2019-05-26T12:40:51.174Z,100529.16
2019-05-26T12:43:23.150Z,100525.27
2019-05-26T12:45:54.988Z,100519.17
2019-05-26T12:48:25.766Z,100519.47
2019-05-26T12:50:56.582Z,100513.34
2019-05-26T12:53:28.605Z,100521.97
2019-05-26T12:55:59.624Z,100516.81
2019-05-26T12:58:33.744Z,100501.81
2019-05-26T13:01:10.237Z,100508.75
2019-05-26T13:03:43.168Z,100504.90
2019-05-26T13:06:17.658Z,100506.27
2019-05-26T13:08:50.398Z,100507.11
2019-05-26T13:11:22.918Z,100506.03
2019-05-26T13:13:54.068Z,100500.67
2019-05-26T13:16:25.022Z,100489.08
2019-05-26T13:18:56.295Z,100480.13
2019-05-26T13:21:29.166Z,100502.52
2019-05-26T13:24:00.563Z,100499.55
2019-05-26T13:26:31.658Z,100495.16
2019-05-26T13:29:09.134Z,100483.45
2019-05-26T13:31:43.319Z,100471.52
2019-05-26T13:34:22.453Z,100488.23
2019-05-26T13:36:56.343Z,100483.38
2019-05-26T13:39:27.319Z,100485.11
2019-05-26T13:42:01.170Z,100484.36
2019-05-26T13:44:31.989Z,100478.50
2019-05-26T13:47:02.911Z,100481.91
2019-05-26T13:49:33.952Z,100476.78
2019-05-26T13:52:05.525Z,100467.66
2019-05-26T13:54:38.276Z,100471.19
2019-05-26T13:57:10.545Z,100459.88
2019-05-26T13:59:45.355Z,100461.99
2019-05-26T14:02:18.773Z,100458.42
2019-05-26T14:04:53.095Z,100461.88
2019-05-26T14:07:24.069Z,100460.72
2019-05-26T14:09:59.229Z,100452.99
2019-05-26T14:12:30.608Z,100454.55
2019-05-26T14:15:08.424Z,100456.03
2019-05-26T14:17:40.360Z,100451.44
2019-05-26T14:20:14.246Z,100448.26
2019-05-26T14:22:51.010Z,100458.91
2019-05-26T14:25:23.775Z,100446.03
2019-05-26T14:27:58.537Z,100439.98
2019-05-26T14:30:32.245Z,100440.40
2019-05-26T14:33:05.824Z,100441.52
2019-05-26T14:35:39.547Z,100442.72
2019-05-26T14:38:10.445Z,100432.05
2019-05-26T14:40:56.920Z,100419.92
2019-05-26T14:43:22.764Z,100428.78
2019-05-26T14:45:55.266Z,100426.61
2019-05-26T14:48:27.756Z,100419.66
2019-05-26T14:50:59.932Z,100418.53
2019-05-26T14:53:34.835Z,100420.91
2019-05-26T14:56:05.888Z,100411.90
2019-05-26T14:58:39.901Z,100414.03
2019-05-26T15:01:13.666Z,100411.20
2019-05-26T15:03:45.152Z,100416.66
2019-05-26T15:06:19.841Z,100415.95
2019-05-26T15:08:52.367Z,100416.02
2019-05-26T15:11:23.541Z,100413.17
2019-05-26T15:13:58.438Z,100410.82
2019-05-26T15:16:29.661Z,100409.20
2019-05-26T15:19:03.518Z,100404.38
2019-05-26T15:21:36.015Z,100399.07
2019-05-26T15:24:07.002Z,100403.18
2019-05-26T15:26:42.079Z,100404.54
2019-05-26T15:29:13.560Z,100401.30
2019-05-26T15:31:44.247Z,100396.83
2019-05-26T15:34:15.043Z,100397.99
2019-05-26T15:36:45.820Z,100387.56
2019-05-26T15:39:16.605Z,100392.27
2019-05-26T15:41:47.664Z,100389.97
2019-05-26T15:44:18.689Z,100388.97
2019-05-26T15:46:49.680Z,100385.25
2019-05-26T15:49:20.678Z,100380.20
2019-05-26T15:51:51.854Z,100383.48
2019-05-26T15:54:26.568Z,100370.23
2019-05-26T15:56:57.487Z,100374.03
2019-05-26T15:59:28.339Z,100372.56
2019-05-26T16:01:59.470Z,100369.20
2019-05-26T16:04:35.062Z,100364.00
2019-05-26T16:07:10.983Z,100369.16
2019-05-26T16:09:41.916Z,100374.98
2019-05-26T16:12:13.027Z,100373.27
2019-05-26T16:14:43.913Z,100371.97
2019-05-26T16:17:14.963Z,100375.69
2019-05-26T16:19:46.688Z,100375.82
2019-05-26T16:22:20.256Z,100382.58
2019-05-26T16:24:56.048Z,100387.81
2019-05-26T16:27:27.330Z,100382.66
2019-05-26T16:29:59.297Z,100378.73
2019-05-26T16:32:31.942Z,100381.17
2019-05-26T16:35:05.286Z,100373.30
2019-05-26T16:37:36.164Z,100380.63
2019-05-26T16:40:09.421Z,100378.50
2019-05-26T16:42:42.784Z,100372.69
2019-05-26T16:45:14.218Z,100369.00
2019-05-26T16:47:46.296Z,100370.86
2019-05-26T16:50:37.207Z,100364.63
2019-05-26T16:53:15.698Z,100362.27
2019-05-26T16:55:47.516Z,100362.67
2019-05-26T16:58:25.973Z,100364.58
2019-05-26T17:00:59.827Z,100363.28
2019-05-26T17:03:32.074Z,100367.62
2019-05-26T17:06:07.812Z,100364.31
2019-05-26T17:08:35.939Z,100365.59
2019-05-26T17:11:09.459Z,100361.47
2019-05-26T17:13:40.413Z,100365.36
2019-05-26T17:16:11.791Z,100364.02
2019-05-26T17:18:42.727Z,100361.58
2019-05-26T17:21:18.642Z,100354.41
2019-05-26T17:23:52.280Z,100353.84
2019-05-26T17:26:23.529Z,100349.85
2019-05-26T17:28:59.024Z,100347.50
2019-05-26T17:31:30.462Z,100345.91
2019-05-26T17:34:01.263Z,100345.47
2019-05-26T17:36:34.560Z,100340.14
2019-05-26T17:39:07.968Z,100348.44
2019-05-26T17:41:39.277Z,100341.66
2019-05-26T17:44:13.541Z,100347.29
2019-05-26T17:46:45.954Z,100351.02
2019-05-26T17:49:16.864Z,100346.25
2019-05-26T17:51:48.341Z,100351.54
2019-05-26T17:54:19.518Z,100351.72
2019-05-26T17:56:50.410Z,100347.47
2019-05-26T17:59:25.027Z,100351.88
2019-05-26T18:01:56.726Z,100355.28
2019-05-26T18:04:28.953Z,100355.18
2019-05-26T18:06:59.867Z,100356.52
2019-05-26T18:09:43.771Z,100353.43
2019-05-26T18:12:05.405Z,100351.70
2019-05-26T18:14:38.509Z,100365.45
2019-05-26T18:17:09.949Z,100360.06
2019-05-26T18:19:42.132Z,100350.80
2019-05-26T18:22:16.777Z,100351.88
2019-05-26T18:24:56.395Z,100349.41
2019-05-26T18:27:21.537Z,100351.22
2019-05-26T18:29:53.252Z,100355.09
2019-05-26T18:32:25.522Z,100353.84
2019-05-26T18:34:57.888Z,100357.98
2019-05-26T18:37:31.850Z,100352.23
2019-05-26T18:42:58.330Z,100362.97
2019-05-26T18:45:30.016Z,100364.83
2019-05-26T18:48:03.335Z,100358.11
2019-05-26T18:50:34.148Z,100358.00
2019-05-26T18:53:05.228Z,100363.91
2019-05-26T18:55:36.897Z,100360.27
2019-05-26T18:58:10.441Z,100358.16
2019-05-26T19:00:45.317Z,100363.53
2019-05-26T19:03:16.521Z,100366.55
2019-05-26T19:05:47.678Z,100372.66
2019-05-26T19:08:20.421Z,100365.00
2019-05-26T19:10:51.529Z,100366.11
2019-05-26T19:13:23.539Z,100368.97
2019-05-26T19:15:55.278Z,100361.95
2019-05-26T19:18:27.612Z,100362.61
2019-05-26T19:20:59.401Z,100363.26
2019-05-26T19:23:30.667Z,100370.69
2019-05-26T19:26:04.852Z,100366.11
2019-05-26T19:28:36.450Z,100363.86
2019-05-26T19:31:07.957Z,100366.45
2019-05-26T19:33:39.086Z,100359.93
2019-05-26T19:36:10.169Z,100359.22
2019-05-26T19:38:44.239Z,100364.33
2019-05-26T19:41:16.796Z,100366.77
2019-05-26T19:43:47.773Z,100363.75
2019-05-26T19:46:19.194Z,100358.98
2019-05-26T19:48:50.952Z,100362.71
2019-05-26T19:51:23.065Z,100362.78
2019-05-26T19:53:57.317Z,100366.84
2019-05-26T19:56:30.103Z,100362.63
2019-05-26T19:59:02.888Z,100362.63
2019-05-26T20:01:37.024Z,100363.48
2019-05-26T20:04:08.829Z,100364.86
2019-05-26T20:06:43.690Z,100356.30
2019-05-26T20:09:14.117Z,100354.80
2019-05-26T20:11:47.708Z,100357.23
2019-05-26T20:14:19.620Z,100348.98
2019-05-26T20:16:51.117Z,100350.17
2019-05-26T20:19:24.008Z,100350.54
2019-05-26T20:21:55.628Z,100346.20
2019-05-26T20:24:28.093Z,100347.27
2019-05-26T20:27:00.725Z,100347.19
2019-05-26T20:29:32.086Z,100350.95
2019-05-26T20:32:07.524Z,100348.09
2019-05-26T20:34:40.558Z,100350.38
2019-05-26T20:37:13.655Z,100338.77
2019-05-26T20:39:45.387Z,100343.33
2019-05-26T20:42:18.625Z,100340.12
2019-05-26T20:44:52.230Z,100339.48
2019-05-26T20:47:29.063Z,100338.47
2019-05-26T20:50:00.826Z,100335.34
2019-05-26T20:52:32.325Z,100326.52
2019-05-26T20:55:05.318Z,100337.97
2019-05-26T20:57:36.689Z,100329.53
2019-05-26T21:00:11.352Z,100330.12
2019-05-26T21:02:43.694Z,100322.02
2019-05-26T21:05:16.902Z,100326.41
2019-05-26T21:07:48.283Z,100327.47
2019-05-26T21:10:20.060Z,100318.21
2019-05-26T21:12:51.006Z,100322.59
2019-05-26T21:15:22.411Z,100318.16
2019-05-26T21:17:54.702Z,100318.73
2019-05-26T21:20:26.298Z,100319.05
2019-05-26T21:22:57.219Z,100321.84
2019-05-26T21:25:28.309Z,100322.91
2019-05-26T21:28:00.095Z,100319.16
2019-05-26T21:30:31.347Z,100319.44
2019-05-26T21:33:02.759Z,100322.16
2019-05-26T21:35:33.885Z,100315.86
2019-05-26T21:38:06.276Z,100316.28
2019-05-26T21:40:38.055Z,100310.98
2019-05-26T21:43:09.162Z,100313.00
2019-05-26T21:45:40.407Z,100314.01
2019-05-26T21:48:11.765Z,100309.86
2019-05-26T21:50:44.307Z,100316.76
2019-05-26T21:53:15.658Z,100321.92
2019-05-26T21:55:46.586Z,100324.16
2019-05-26T21:58:17.615Z,100316.30
2019-05-26T22:00:50.694Z,100311.76
2019-05-26T22:03:23.484Z,100311.67
2019-05-26T22:05:55.297Z,100314.60
2019-05-26T22:08:26.600Z,100312.91
2019-05-26T22:10:58.803Z,100310.32
2019-05-26T22:13:30.431Z,100309.73
2019-05-26T22:16:01.824Z,100308.99
2019-05-26T22:18:33.589Z,100311.80
2019-05-26T22:21:06.137Z,100302.98
2019-05-26T22:23:37.186Z,100301.29
2019-05-26T22:26:08.886Z,100301.64
2019-05-26T22:28:40.345Z,100296.02
2019-05-26T22:31:11.818Z,100300.66
2019-05-26T22:33:43.038Z,100295.90
2019-05-26T22:36:14.055Z,100281.31
2019-05-26T22:38:45.822Z,100281.31
2019-05-26T22:41:17.530Z,100280.34
2019-05-26T22:43:49.123Z,100277.55
2019-05-26T22:46:20.438Z,100279.50
2019-05-26T22:48:52.059Z,100273.76
2019-05-26T22:51:23.339Z,100273.27
2019-05-26T22:53:56.360Z,100276.06
2019-05-26T22:56:28.156Z,100274.70
2019-05-26T22:58:59.717Z,100273.11
2019-05-26T23:01:31.710Z,100273.11
2019-05-26T23:04:04.501Z,100270.42
2019-05-26T23:06:37.626Z,100272.62
2019-05-26T23:09:09.117Z,100269.09
2019-05-26T23:11:41.942Z,100272.62
2019-05-26T23:14:14.665Z,100272.62
2019-05-26T23:16:46.983Z,100267.61
2019-05-26T23:19:20.381Z,100275.98
2019-05-26T23:21:52.487Z,100253.22
2019-05-26T23:24:24.144Z,100269.10
2019-05-26T23:26:56.559Z,100263.61
2019-05-26T23:29:28.779Z,100267.13
2019-05-26T23:32:01.346Z,100264.72
2019-05-26T23:34:33.505Z,100272.64
2019-05-26T23:37:07.204Z,100264.72
2019-05-26T23:39:39.853Z,100267.73
2019-05-26T23:42:13.737Z,100262.47
2019-05-26T23:44:45.930Z,100261.78
2019-05-26T23:47:18.296Z,100259.31
2019-05-26T23:49:49.569Z,100263.09
2019-05-26T23:52:21.821Z,100265.27
2019-05-26T23:54:53.789Z,100265.59
2019-05-26T23:57:25.508Z,100255.76
2019-05-26T23:59:56.478Z,100258.44
